Time;durP1;ratioP1;P1;durP2;ratioP2;P2;SDS_P1;SDS_P2;PMS_P1;PMS_P2;Temp;Humidity;BMP_temperature;BMP_pressure;BME280_temperature;BME280_humidity;BME280_pressure;Samples;Min_cycle;Max_cycle;Signal;HPM_P1;HPM_P2
2023/06/28 00:01:07;;;;;;;9.85;4.78;;;;;;;18.22;70.01;100385.84;10422874;28;20040;-82
2023/06/28 00:06:09;;;;;;;10.18;5.50;;;;;;;18.21;70.31;100385.03;10452003;28;20032;-82
2023/06/28 00:11:11;;;;;;;7.20;5.30;;;;;;;18.16;70.07;100390.81;10435174;28;20041;-82
2023/06/28 00:16:14;;;;;;;12.63;6.00;;;;;;;18.06;70.50;100391.22;10432578;28;20032;-82
2023/06/28 00:21:16;;;;;;;9.45;4.90;;;;;;;17.98;70.79;100386.53;10453661;28;20032;-83
2023/06/28 00:26:19;;;;;;;8.43;5.97;;;;;;;17.94;71.67;100391.94;10424171;28;20036;-82
2023/06/28 00:31:21;;;;;;;10.50;5.63;;;;;;;17.91;71.52;100394.59;10447277;28;20041;-82
2023/06/28 00:36:23;;;;;;;10.35;5.70;;;;;;;17.73;72.58;100389.13;10426819;28;20052;-82
2023/06/28 00:41:25;;;;;;;8.75;6.40;;;;;;;17.56;73.05;100399.47;10432199;28;20033;-82
2023/06/28 00:46:30;;;;;;;8.30;5.65;;;;;;;17.41;73.87;100398.88;10435999;28;20048;-83
2023/06/28 00:51:32;;;;;;;10.40;6.38;;;;;;;17.28;74.04;100397.13;10465712;28;20045;-82
2023/06/28 00:56:35;;;;;;;10.23;5.90;;;;;;;17.27;75.06;100389.16;10433000;28;20040;-82
2023/06/28 01:01:37;;;;;;;13.18;5.90;;;;;;;17.25;75.36;100391.44;10442681;28;20421;-82
2023/06/28 01:06:41;;;;;;;8.45;5.47;;;;;;;17.22;76.18;100381.03;10466569;28;20420;-82
2023/06/28 01:11:43;;;;;;;10.77;6.65;;;;;;;17.17;75.90;100391.13;10435041;28;20037;-82
2023/06/28 01:16:49;;;;;;;7.45;5.68;;;;;;;17.12;76.74;100384.97;10433334;28;20045;-83
2023/06/28 01:22:00;;;;;;;11.57;5.60;;;;;;;17.08;77.31;100381.22;10441568;28;20032;-82
2023/06/28 01:27:03;;;;;;;7.75;5.43;;;;;;;17.02;77.92;100379.78;10436364;28;20037;-82
2023/06/28 01:32:05;;;;;;;9.55;6.28;;;;;;;17.03;78.21;100384.19;10460559;28;20033;-83
2023/06/28 01:37:07;;;;;;;7.95;5.60;;;;;;;17.02;78.70;100383.38;10433201;28;20059;-82
2023/06/28 01:42:10;;;;;;;10.00;5.75;;;;;;;17.04;79.10;100383.84;10464000;28;20999;-82
2023/06/28 01:47:12;;;;;;;10.32;5.97;;;;;;;17.01;79.87;100384.53;10460356;28;20059;-83
2023/06/28 01:52:15;;;;;;;8.60;5.35;;;;;;;17.05;79.66;100388.25;10457155;28;20397;-83
2023/06/28 01:57:17;;;;;;;11.35;6.35;;;;;;;17.21;79.85;100382.97;10463323;28;20044;-82
2023/06/28 02:02:19;;;;;;;9.52;5.78;;;;;;;17.47;78.85;100382.84;10447472;28;20034;-83
2023/06/28 02:07:21;;;;;;;12.27;6.80;;;;;;;17.63;78.05;100378.38;10441314;28;20505;-82
2023/06/28 02:12:23;;;;;;;8.80;5.43;;;;;;;17.87;77.69;100383.31;10411786;28;20037;-83
2023/06/28 02:17:26;;;;;;;8.85;6.28;;;;;;;18.06;77.03;100385.66;10478156;28;20051;-82
2023/06/28 02:22:30;;;;;;;7.18;5.32;;;;;;;18.37;76.38;100388.00;10456994;28;20044;-83
2023/06/28 02:27:34;;;;;;;10.45;6.20;;;;;;;18.62;75.09;100388.97;10436700;28;20037;-83
2023/06/28 02:32:36;;;;;;;14.52;6.38;;;;;;;19.05;73.43;100390.50;10454028;28;20071;-82
2023/06/28 02:37:38;;;;;;;10.65;5.82;;;;;;;19.53;71.90;100389.75;10445989;28;20029;-82
2023/06/28 02:42:41;;;;;;;12.05;6.55;;;;;;;19.72;71.14;100392.00;10425728;28;20049;-82
2023/06/28 02:47:43;;;;;;;10.48;6.05;;;;;;;19.81;70.36;100390.72;10445260;28;20049;-83
2023/06/28 02:52:45;;;;;;;9.43;6.00;;;;;;;20.09;70.68;100396.34;10431325;28;20049;-83
2023/06/28 02:57:48;;;;;;;10.75;6.82;;;;;;;20.27;69.60;100398.88;10424358;28;20041;-83
2023/06/28 03:02:51;;;;;;;14.70;6.50;;;;;;;20.52;69.19;100402.44;10420039;28;20041;-83
2023/06/28 03:07:58;;;;;;;8.90;5.93;;;;;;;20.73;68.57;100398.28;10455823;28;20068;-83
2023/06/28 03:13:04;;;;;;;11.60;6.45;;;;;;;21.00;66.92;100395.81;10449014;28;20523;-83
2023/06/28 03:18:06;;;;;;;10.48;6.18;;;;;;;21.07;67.05;100391.25;10438008;28;20079;-83
2023/06/28 03:23:08;;;;;;;9.88;6.35;;;;;;;21.46;66.48;100401.84;10445865;28;20037;-83
2023/06/28 03:28:11;;;;;;;12.68;5.88;;;;;;;21.82;66.08;100397.94;10436644;28;20409;-83
2023/06/28 03:33:17;;;;;;;11.95;6.10;;;;;;;22.03;64.41;100404.00;10417466;28;20037;-83
2023/06/28 03:38:19;;;;;;;14.77;6.20;;;;;;;22.28;63.19;100410.22;10412030;28;20048;-83
2023/06/28 03:43:21;;;;;;;11.98;6.03;;;;;;;22.53;62.33;100411.53;10443131;28;20053;-83
2023/06/28 03:48:23;;;;;;;13.02;6.45;;;;;;;22.84;61.58;100413.41;10434036;28;20036;-83
2023/06/28 03:53:26;;;;;;;9.57;5.68;;;;;;;23.15;60.59;100403.19;10475768;28;20040;-82
2023/06/28 03:58:28;;;;;;;11.10;5.80;;;;;;;23.30;59.64;100410.69;10458249;28;20045;-82
2023/06/28 04:03:30;;;;;;;9.20;5.68;;;;;;;23.76;58.98;100408.66;10432022;28;20071;-82
2023/06/28 04:08:33;;;;;;;9.48;6.60;;;;;;;24.20;57.72;100407.34;10471355;28;20036;-82
2023/06/28 04:13:35;;;;;;;12.15;7.53;;;;;;;24.46;56.71;100406.50;10430756;28;20493;-82
2023/06/28 04:18:37;;;;;;;11.75;6.13;;;;;;;24.90;55.78;100406.66;10467483;28;20036;-82
2023/06/28 04:23:39;;;;;;;11.75;6.07;;;;;;;25.08;54.74;100402.06;10417592;28;20033;-82
2023/06/28 04:28:42;;;;;;;12.82;7.22;;;;;;;24.81;55.64;100411.75;10494982;28;20051;-82
2023/06/28 04:33:46;;;;;;;11.98;6.78;;;;;;;25.10;55.62;100410.91;10485133;28;20139;-82
2023/06/28 04:38:52;;;;;;;10.50;6.88;;;;;;;25.25;54.10;100404.25;10416732;28;20155;-82
2023/06/28 04:43:56;;;;;;;13.47;6.73;;;;;;;25.33;53.97;100412.72;10491039;28;20424;-82
2023/06/28 04:48:58;;;;;;;11.65;6.80;;;;;;;25.02;54.97;100412.03;10413547;28;20467;-82
2023/06/28 04:54:00;;;;;;;9.20;6.55;;;;;;;25.24;54.19;100411.06;10445297;28;20041;-82
2023/06/28 04:59:02;;;;;;;11.18;6.53;;;;;;;24.93;54.32;100406.69;10468639;28;20037;-83
2023/06/28 05:04:05;;;;;;;10.60;6.90;;;;;;;25.06;53.63;100412.06;10412120;28;20436;-83
2023/06/28 05:09:07;;;;;;;9.68;6.47;;;;;;;25.65;52.38;100411.00;10414812;28;20412;-83
2023/06/28 05:14:09;;;;;;;8.68;5.68;;;;;;;25.63;52.21;100407.78;10446455;28;20048;-83
2023/06/28 05:19:15;;;;;;;10.50;6.20;;;;;;;25.95;51.76;100407.25;10465622;28;20468;-83
2023/06/28 05:24:18;;;;;;;9.15;6.55;;;;;;;26.56;50.48;100402.81;10460657;28;20511;-83
2023/06/28 05:29:21;;;;;;;10.70;6.50;;;;;;;27.04;49.21;100404.19;10439180;28;20496;-83
2023/06/28 05:34:23;;;;;;;10.68;6.22;;;;;;;26.40;49.65;100408.78;10466983;28;20523;-83
2023/06/28 05:39:26;;;;;;;9.15;6.40;;;;;;;26.09;50.13;100410.16;10447804;28;20045;-83
2023/06/28 05:44:28;;;;;;;9.45;6.35;;;;;;;27.00;48.92;100408.22;10468190;28;20496;-83
2023/06/28 05:49:31;;;;;;;9.48;6.75;;;;;;;27.70;47.38;100415.16;10452109;28;20044;-83
2023/06/28 05:54:34;;;;;;;15.20;6.90;;;;;;;28.33;46.09;100418.34;10433988;28;20084;-83
2023/06/28 05:59:36;;;;;;;7.72;5.88;;;;;;;28.07;44.34;100420.38;10441460;28;20040;-83
2023/06/28 06:04:40;;;;;;;7.07;5.20;;;;;;;28.92;42.84;100413.69;10434479;28;20037;-83
2023/06/28 06:09:42;;;;;;;8.05;5.72;;;;;;;29.26;42.18;100421.56;10468134;28;20052;-83
2023/06/28 06:14:47;;;;;;;8.60;5.40;;;;;;;29.63;41.80;100418.06;10425514;28;20042;-84
2023/06/28 06:19:49;;;;;;;7.85;5.00;;;;;;;29.86;39.96;100417.47;10416977;28;20408;-83
2023/06/28 06:24:52;;;;;;;5.75;4.72;;;;;;;29.78;39.04;100411.06;10463863;28;20048;-83
2023/06/28 06:29:54;;;;;;;4.97;4.47;;;;;;;30.10;37.58;100410.78;10444934;28;20033;-84
2023/06/28 06:35:00;;;;;;;7.07;5.00;;;;;;;30.12;38.55;100413.19;10473450;28;20041;-83
2023/06/28 06:40:03;;;;;;;5.65;5.00;;;;;;;30.39;38.53;100410.50;10440356;28;20045;-84
2023/06/28 06:45:06;;;;;;;7.95;5.47;;;;;;;30.32;37.92;100414.19;10479265;28;20416;-84
2023/06/28 06:50:09;;;;;;;7.00;4.68;;;;;;;30.52;37.39;100412.34;10473023;28;20488;-83
2023/06/28 06:55:11;;;;;;;5.97;4.50;;;;;;;30.28;38.00;100408.56;10454331;28;20466;-83
2023/06/28 07:00:16;;;;;;;7.88;4.47;;;;;;;29.71;37.84;100414.78;10473904;28;20048;-83
2023/06/28 07:05:21;;;;;;;7.15;4.95;;;;;;;29.69;38.34;100405.91;10491250;28;20032;-83
2023/06/28 07:10:23;;;;;;;7.60;4.40;;;;;;;29.62;37.79;100419.28;10474356;28;20049;-83
2023/06/28 07:15:25;;;;;;;9.32;5.30;;;;;;;29.13;37.76;100407.91;10491210;28;20504;-83
2023/06/28 07:20:27;;;;;;;7.75;4.22;;;;;;;29.33;38.08;100399.72;10457774;28;20052;-83
2023/06/28 07:25:30;;;;;;;7.43;4.97;;;;;;;29.75;37.64;100411.91;10472131;28;20045;-83
2023/06/28 07:30:53;;;;;;;7.18;4.88;;;;;;;29.68;38.30;100417.66;10454417;28;20408;-83
2023/06/28 07:35:56;;;;;;;8.30;5.00;;;;;;;29.84;37.21;100405.75;10465471;28;20082;-83
2023/06/28 07:40:58;;;;;;;6.50;4.18;;;;;;;29.38;37.91;100406.94;10452182;28;20044;-82
2023/06/28 07:46:01;;;;;;;7.00;4.53;;;;;;;29.13;38.35;100401.44;10521503;28;20080;-83
2023/06/28 07:51:05;;;;;;;4.60;4.13;;;;;;;29.51;37.51;100407.28;10469893;28;20582;-82
2023/06/28 07:56:07;;;;;;;6.45;4.80;;;;;;;29.50;35.97;100408.47;10463160;28;20500;-83
2023/06/28 08:01:09;;;;;;;5.90;4.35;;;;;;;29.68;36.29;100409.97;10481690;28;20049;-82
2023/06/28 08:06:11;;;;;;;5.38;4.60;;;;;;;30.62;33.99;100404.97;10425190;28;20631;-82
2023/06/28 08:11:22;;;;;;;7.45;4.80;;;;;;;31.27;33.39;100405.72;10462656;28;20193;-82
2023/06/28 08:16:24;;;;;;;6.13;4.30;;;;;;;31.61;32.12;100402.75;10464621;28;20035;-82
2023/06/28 08:21:26;;;;;;;4.50;3.95;;;;;;;31.31;32.02;100400.78;10507973;28;20049;-83
2023/06/28 08:26:29;;;;;;;5.63;4.65;;;;;;;31.25;32.98;100398.88;10458574;28;20044;-82
2023/06/28 08:31:31;;;;;;;5.80;4.13;;;;;;;31.31;33.03;100392.28;10452578;28;20393;-83
2023/06/28 08:36:33;;;;;;;4.25;3.72;;;;;;;32.38;30.38;100393.25;10470302;28;20040;-82
2023/06/28 08:41:36;;;;;;;5.20;4.53;;;;;;;32.08;31.45;100388.53;10409714;28;20041;-82
2023/06/28 08:46:40;;;;;;;4.43;3.70;;;;;;;30.30;32.79;100386.31;10439253;28;20049;-82
2023/06/28 08:51:43;;;;;;;4.93;3.45;;;;;;;29.27;33.10;100375.91;10475401;28;20052;-81
2023/06/28 08:56:46;;;;;;;5.10;3.85;;;;;;;28.65;34.16;100375.88;10423630;28;20044;-86
2023/06/28 09:01:50;;;;;;;6.45;4.22;;;;;;;28.80;33.20;100375.38;10458287;28;20043;-86
2023/06/28 09:07:15;;;;;;;10.10;5.90;;;;;;;29.60;33.34;100368.00;10450135;28;20051;-88
2023/06/28 09:12:19;;;;;;;7.10;4.65;;;;;;;29.64;33.00;100369.56;10474632;28;20390;-85
2023/06/28 09:17:21;;;;;;;5.95;4.07;;;;;;;30.93;32.01;100376.66;10452508;28;20421;-84
2023/06/28 09:22:23;;;;;;;8.95;4.70;;;;;;;30.90;33.05;100378.31;10454439;28;20558;-85
2023/06/28 09:27:29;;;;;;;7.43;3.67;;;;;;;28.73;42.82;100406.47;10469522;28;20044;-85
2023/06/28 09:32:51;;;;;;;5.20;3.07;;;;;;;25.61;44.98;100417.81;10450320;28;20049;-85
2023/06/28 09:37:55;;;;;;;3.58;1.60;;;;;;;24.59;43.31;100442.34;10484268;28;20040;-84
2023/06/28 09:42:57;;;;;;;3.42;3.10;;;;;;;23.80;42.29;100449.97;10475929;28;20522;-86
2023/06/28 09:48:03;;;;;;;4.97;3.95;;;;;;;23.41;46.46;100506.06;10473191;28;20040;-84
2023/06/28 09:53:19;;;;;;;4.68;2.78;;;;;;;21.66;58.92;100478.94;10488964;28;20040;-88
2023/06/28 09:58:21;;;;;;;5.80;3.40;;;;;;;19.79;60.41;100461.84;10445215;28;20123;-88
2023/06/28 10:03:25;;;;;;;2.30;1.65;;;;;;;19.17;63.94;100479.53;10453248;28;20055;-88
2023/06/28 10:08:27;;;;;;;4.25;2.00;;;;;;;18.48;55.87;100416.22;10436038;28;20159;-86
2023/06/28 10:13:30;;;;;;;3.50;2.45;;;;;;;19.22;58.77;100426.47;10455509;28;20036;-85
2023/06/28 10:18:32;;;;;;;3.97;2.88;;;;;;;19.35;60.22;100427.31;10471299;28;20052;-88
2023/06/28 10:23:35;;;;;;;2.67;2.28;;;;;;;19.30;61.55;100411.66;10433023;28;20460;-85
2023/06/28 10:28:40;;;;;;;2.67;1.98;;;;;;;19.50;55.70;100396.03;10473946;28;20048;-86
2023/06/28 10:33:44;;;;;;;2.65;2.00;;;;;;;19.88;57.53;100385.38;10462418;28;20056;-85
2023/06/28 10:38:47;;;;;;;3.25;1.90;;;;;;;20.11;52.34;100366.16;10479691;28;20403;-88
2023/06/28 10:43:51;;;;;;;7.80;4.72;;;;;;;20.82;58.40;100361.84;10472970;28;20048;-86
2023/06/28 10:48:55;;;;;;;13.20;6.95;;;;;;;20.93;58.52;100359.38;10483392;28;20058;-85
2023/06/28 10:54:13;;;;;;;8.40;5.15;;;;;;;20.89;60.98;100352.88;10484053;28;20035;-86
2023/06/28 10:59:16;;;;;;;5.57;3.67;;;;;;;21.15;60.18;100341.19;10446161;28;20036;-90
2023/06/28 11:04:19;;;;;;;6.30;3.70;;;;;;;21.41;59.52;100349.88;10451485;28;20044;-88
2023/06/28 11:09:22;;;;;;;4.88;3.38;;;;;;;21.70;56.59;100347.78;10482788;28;20048;-87
2023/06/28 11:14:27;;;;;;;5.00;3.65;;;;;;;22.13;60.43;100349.56;10504763;28;20043;-89
2023/06/28 11:19:29;;;;;;;5.50;3.10;;;;;;;22.40;55.00;100351.38;10466545;28;20404;-86
2023/06/28 11:24:42;;;;;;;5.43;3.22;;;;;;;22.48;53.28;100341.13;10480197;28;20061;-89
2023/06/28 11:30:01;;;;;;;3.78;3.30;;;;;;;22.74;52.90;100337.66;10453425;28;20048;-87
2023/06/28 11:35:05;;;;;;;5.80;2.83;;;;;;;22.98;51.17;100336.50;10484171;28;20428;-88
2023/06/28 11:40:08;;;;;;;5.20;3.08;;;;;;;23.10;50.27;100345.53;10471867;28;20060;-88
2023/06/28 11:45:10;;;;;;;5.53;3.00;;;;;;;23.34;51.37;100343.53;10492387;28;20511;-86
2023/06/28 11:50:12;;;;;;;4.25;2.58;;;;;;;23.30;45.93;100342.69;10486993;28;20040;-86
2023/06/28 11:55:15;;;;;;;4.35;2.50;;;;;;;23.45;46.61;100336.13;10491001;28;20857;-85
2023/06/28 12:00:18;;;;;;;3.47;2.58;;;;;;;23.71;45.12;100324.94;10484359;28;20040;-85
2023/06/28 12:05:21;;;;;;;4.25;2.47;;;;;;;23.96;43.22;100314.13;10487012;28;20033;-88
2023/06/28 12:10:23;;;;;;;6.55;2.58;;;;;;;24.24;41.52;100307.25;10494366;28;20044;-85
2023/06/28 12:15:28;;;;;;;5.18;2.80;;;;;;;24.45;41.04;100301.91;10472782;28;20029;-86
2023/06/28 12:20:33;;;;;;;4.80;2.85;;;;;;;24.71;40.19;100297.41;10465165;28;20051;-87
2023/06/28 12:25:40;;;;;;;5.70;2.60;;;;;;;24.93;38.60;100302.81;10509568;28;20044;-86
2023/06/28 12:30:42;;;;;;;;;;;;;;;25.03;37.23;100286.50;10504067;28;20044;-84
2023/06/28 12:35:46;;;;;;;2.85;2.40;;;;;;;25.17;37.09;100281.81;10450082;28;20410;-85
2023/06/28 12:40:48;;;;;;;3.05;1.95;;;;;;;25.29;35.01;100277.88;10478884;28;20048;-85
2023/06/28 12:45:51;;;;;;;5.80;2.60;;;;;;;25.38;36.15;100269.94;10421733;28;20095;-85
2023/06/28 12:50:55;;;;;;;3.97;2.60;;;;;;;25.62;36.32;100260.06;10487907;28;20037;-85
2023/06/28 12:55:57;;;;;;;3.47;2.45;;;;;;;25.90;35.75;100272.69;10473731;28;20048;-86
2023/06/28 13:01:00;;;;;;;4.00;3.00;;;;;;;25.91;36.15;100260.25;10454674;28;20056;-84
2023/06/28 13:06:02;;;;;;;4.15;3.03;;;;;;;25.89;35.46;100252.22;10476613;28;20036;-85
2023/06/28 13:11:08;;;;;;;4.40;2.80;;;;;;;25.97;36.06;100261.47;10467911;28;20036;-84
2023/06/28 13:16:13;;;;;;;3.63;2.75;;;;;;;25.98;35.76;100252.63;10469914;28;20102;-84
2023/06/28 13:21:16;;;;;;;3.05;2.58;;;;;;;26.06;35.48;100240.22;10484662;28;20044;-85
2023/06/28 13:26:18;;;;;;;4.10;2.72;;;;;;;26.10;35.83;100248.66;10465489;28;20036;-86
2023/06/28 13:31:21;;;;;;;3.97;3.17;;;;;;;26.13;35.17;100248.69;10460098;28;20045;-84
2023/06/28 13:36:26;;;;;;;4.05;2.58;;;;;;;26.22;35.67;100247.53;10481336;28;20411;-86
2023/06/28 13:41:29;;;;;;;3.28;2.58;;;;;;;26.28;35.52;100254.38;10499655;28;20036;-86
2023/06/28 13:46:31;;;;;;;4.35;2.88;;;;;;;26.21;35.31;100251.50;10479996;28;20499;-85
2023/06/28 13:51:33;;;;;;;3.95;2.85;;;;;;;26.23;35.83;100251.94;10456924;28;20219;-85
2023/06/28 13:56:35;;;;;;;4.90;3.65;;;;;;;26.13;36.96;100248.69;10470485;28;20508;-84
2023/06/28 14:01:37;;;;;;;3.72;2.85;;;;;;;26.08;37.00;100256.69;10483178;28;20036;-86
2023/06/28 14:06:40;;;;;;;3.97;3.15;;;;;;;26.04;37.20;100237.00;10487538;28;20059;-85
2023/06/28 14:11:42;;;;;;;7.47;3.25;;;;;;;25.99;36.55;100243.00;10487230;28;20045;-85
2023/06/28 14:16:44;;;;;;;3.25;2.55;;;;;;;25.96;34.80;100254.22;10491337;28;20497;-85
2023/06/28 14:21:46;;;;;;;4.47;2.72;;;;;;;25.82;35.29;100252.16;10481687;28;20047;-85
2023/06/28 14:26:52;;;;;;;3.92;3.03;;;;;;;25.75;35.15;100238.06;10467930;28;20044;-87
2023/06/28 14:31:54;;;;;;;3.70;2.92;;;;;;;25.74;34.87;100228.03;10477196;28;20028;-86
2023/06/28 14:36:56;;;;;;;3.10;2.38;;;;;;;25.75;35.70;100241.69;10456950;28;20047;-86
2023/06/28 14:41:58;;;;;;;6.18;2.67;;;;;;;25.72;34.52;100242.47;10467076;28;20037;-91
2023/06/28 14:47:03;;;;;;;2.20;1.85;;;;;;;25.67;34.87;100240.00;10468887;28;20429;-85
2023/06/28 14:52:05;;;;;;;3.92;2.08;;;;;;;25.54;34.77;100238.75;10467982;28;20039;-85
2023/06/28 14:57:07;;;;;;;3.63;2.30;;;;;;;25.43;35.06;100230.25;10465394;28;20553;-86
2023/06/28 15:02:10;;;;;;;7.57;3.17;;;;;;;25.36;35.20;100224.59;10462454;28;20032;-85
2023/06/28 15:07:12;;;;;;;3.30;2.50;;;;;;;25.28;36.07;100236.16;10470327;28;20036;-84
2023/06/28 15:12:14;;;;;;;4.25;2.47;;;;;;;25.23;36.20;100240.13;10491899;28;20037;-85
2023/06/28 15:17:16;;;;;;;4.88;3.58;;;;;;;25.16;36.99;100237.25;10482406;28;20049;-86
2023/06/28 15:22:19;;;;;;;2.67;2.35;;;;;;;25.08;36.68;100238.41;10507157;28;20510;-88
2023/06/28 15:27:21;;;;;;;5.38;3.50;;;;;;;24.93;37.37;100240.25;10529819;28;20527;-85
2023/06/28 15:32:24;;;;;;;4.75;2.85;;;;;;;24.80;37.54;100252.97;10462264;28;20115;-92
2023/06/28 15:37:26;;;;;;;3.08;1.92;;;;;;;24.71;37.98;100247.69;10448173;28;20411;-91
2023/06/28 15:42:28;;;;;;;4.68;2.80;;;;;;;24.60;38.31;100247.56;10465567;28;20036;-87
2023/06/28 15:47:30;;;;;;;3.90;2.90;;;;;;;24.62;38.07;100242.38;10446898;28;20045;-87
2023/06/28 15:52:32;;;;;;;5.18;3.17;;;;;;;24.53;38.51;100247.50;10494514;28;20480;-94
2023/06/28 15:57:35;;;;;;;5.18;3.13;;;;;;;24.43;38.03;100250.19;10453605;28;20040;-86
2023/06/28 16:02:37;;;;;;;4.85;2.60;;;;;;;24.31;39.51;100260.50;10495289;28;20411;-87
2023/06/28 16:07:39;;;;;;;3.50;3.03;;;;;;;24.15;40.80;100257.09;10468634;28;20041;-86
2023/06/28 16:12:42;;;;;;;5.15;3.05;;;;;;;24.03;41.91;100263.75;10496999;28;20037;-88
2023/06/28 16:17:45;;;;;;;6.82;3.67;;;;;;;23.92;43.08;100271.19;10473274;28;20041;-89
2023/06/28 16:22:47;;;;;;;4.70;3.55;;;;;;;23.84;43.62;100277.09;10494252;28;20040;-89
2023/06/28 16:27:51;;;;;;;3.85;2.97;;;;;;;23.72;45.10;100264.94;10481319;28;20040;-88
2023/06/28 16:32:56;;;;;;;5.00;3.38;;;;;;;23.63;45.46;100272.00;10492469;28;20488;-88
2023/06/28 16:37:59;;;;;;;4.85;3.75;;;;;;;23.51;45.65;100264.59;10471720;28;20044;-89
2023/06/28 16:43:03;;;;;;;5.75;3.97;;;;;;;23.44;45.90;100265.31;10478854;28;20099;-88
2023/06/28 16:48:05;;;;;;;4.15;3.40;;;;;;;23.40;46.31;100266.41;10479057;28;20044;-92
2023/06/28 16:53:07;;;;;;;5.65;4.00;;;;;;;23.38;46.39;100264.00;10494110;28;20032;-87
2023/06/28 16:58:09;;;;;;;4.45;2.63;;;;;;;23.36;46.54;100263.56;10474583;28;20451;-92
2023/06/28 17:03:12;;;;;;;6.72;4.05;;;;;;;23.27;45.90;100267.84;10463934;28;20037;-87
2023/06/28 17:08:14;;;;;;;5.25;3.40;;;;;;;23.17;46.63;100275.69;10462952;28;20495;-88
2023/06/28 17:13:17;;;;;;;5.55;3.90;;;;;;;23.20;46.70;100288.09;10462635;28;20052;-87
2023/06/28 17:18:19;;;;;;;5.97;3.38;;;;;;;23.15;47.00;100292.03;10442098;28;20541;-87
2023/06/28 17:23:21;;;;;;;6.88;3.75;;;;;;;23.10;49.00;100300.75;10438105;28;20044;-90
2023/06/28 17:28:24;;;;;;;6.75;4.18;;;;;;;22.98;47.45;100298.16;10477031;28;20036;-89
2023/06/28 17:33:26;;;;;;;4.75;3.50;;;;;;;22.85;47.18;100302.31;10478422;28;20373;-89
2023/06/28 17:38:28;;;;;;;6.53;3.95;;;;;;;22.80;47.11;100303.41;10465560;28;20055;-88
2023/06/28 17:43:31;;;;;;;6.03;4.18;;;;;;;22.76;47.20;100302.53;10443141;28;20415;-91
2023/06/28 17:48:33;;;;;;;5.15;4.07;;;;;;;22.71;48.17;100294.41;10441931;28;20514;-91
2023/06/28 17:53:36;;;;;;;8.25;3.67;;;;;;;22.64;47.62;100293.50;10458295;28;20056;-90
2023/06/28 17:58:38;;;;;;;6.13;4.43;;;;;;;22.70;48.36;100292.81;10460778;28;20040;-91
2023/06/28 18:03:40;;;;;;;9.93;4.15;;;;;;;22.79;48.43;100292.56;10470799;28;20273;-88
2023/06/28 18:08:43;;;;;;;6.38;4.00;;;;;;;22.67;48.06;100293.56;10462742;28;20048;-89
2023/06/28 18:13:45;;;;;;;6.15;3.80;;;;;;;22.68;48.36;100291.56;10457624;28;20431;-88
2023/06/28 18:18:47;;;;;;;7.38;4.50;;;;;;;22.60;48.49;100303.81;10472739;28;20071;-88
2023/06/28 18:23:49;;;;;;;7.38;4.55;;;;;;;22.45;48.65;100303.53;10469944;28;20226;-87
2023/06/28 18:28:52;;;;;;;5.60;3.92;;;;;;;22.29;47.69;100308.41;10479157;28;20048;-89
2023/06/28 18:33:54;;;;;;;7.53;4.30;;;;;;;22.23;47.91;100307.88;10517669;28;20507;-87
2023/06/28 18:38:56;;;;;;;7.55;4.60;;;;;;;22.13;48.41;100308.47;10460925;28;20060;-87
2023/06/28 18:44:05;;;;;;;7.07;4.00;;;;;;;22.05;47.75;100317.88;10489365;28;20048;-91
2023/06/28 18:49:07;;;;;;;11.57;4.50;;;;;;;22.03;47.94;100316.56;10455822;28;20044;-88
2023/06/28 18:54:10;;;;;;;7.75;4.38;;;;;;;22.04;48.70;100315.41;10457650;28;20041;-89
2023/06/28 18:59:12;;;;;;;7.78;4.43;;;;;;;21.94;47.97;100300.84;10473987;28;20052;-89
2023/06/28 19:04:20;;;;;;;7.20;3.63;;;;;;;21.93;48.04;100299.22;10473712;28;20407;-88
2023/06/28 19:09:22;;;;;;;5.82;4.00;;;;;;;21.89;48.09;100297.53;10462489;28;20530;-90
2023/06/28 19:14:24;;;;;;;5.82;4.00;;;;;;;21.79;47.61;100295.31;10457985;28;20428;-89
2023/06/28 19:19:26;;;;;;;4.85;3.58;;;;;;;21.66;48.46;100303.00;10446160;28;20047;-85
2023/06/28 19:24:30;;;;;;;5.13;3.40;;;;;;;21.64;48.97;100295.00;10480484;28;20041;-85
2023/06/28 19:29:32;;;;;;;6.05;3.55;;;;;;;21.66;48.56;100303.81;10460415;28;20037;-84
2023/06/28 19:34:34;;;;;;;5.80;3.70;;;;;;;21.63;48.86;100307.34;10506083;28;20047;-84
2023/06/28 19:39:37;;;;;;;7.80;4.22;;;;;;;21.55;49.14;100304.75;10494890;28;20404;-85
2023/06/28 19:44:39;;;;;;;6.57;3.85;;;;;;;21.43;49.30;100310.44;10477154;28;20064;-84
2023/06/28 19:49:41;;;;;;;6.03;3.63;;;;;;;21.29;48.76;100313.69;10509703;28;20048;-85
2023/06/28 19:54:43;;;;;;;7.95;4.00;;;;;;;21.16;49.56;100312.94;10468968;28;20044;-85
2023/06/28 19:59:46;;;;;;;5.07;3.75;;;;;;;21.11;49.64;100298.44;10457738;28;20039;-85
2023/06/28 20:04:49;;;;;;;8.23;4.10;;;;;;;21.06;50.31;100296.75;10452479;28;20032;-84
2023/06/28 20:09:51;;;;;;;6.43;3.78;;;;;;;20.96;50.92;100297.28;10480674;28;20047;-87
2023/06/28 20:14:53;;;;;;;8.23;4.35;;;;;;;20.97;51.29;100284.94;10462946;28;20040;-86
2023/06/28 20:19:58;;;;;;;4.60;3.65;;;;;;;20.90;51.35;100280.00;10465531;28;20055;-87
2023/06/28 20:25:05;;;;;;;6.63;3.67;;;;;;;20.91;51.23;100287.22;10478897;28;20507;-85
2023/06/28 20:30:09;;;;;;;5.68;3.67;;;;;;;20.92;51.59;100286.03;10483078;28;20044;-84
2023/06/28 20:35:11;;;;;;;11.05;4.28;;;;;;;20.76;51.13;100288.00;10470489;28;20037;-85
2023/06/28 20:40:13;;;;;;;7.60;4.47;;;;;;;20.74;51.61;100288.38;10450564;28;20028;-85
2023/06/28 20:45:15;;;;;;;6.45;4.30;;;;;;;20.74;52.11;100282.78;10466729;28;20047;-85
2023/06/28 20:50:18;;;;;;;5.72;3.88;;;;;;;20.72;51.41;100276.75;10473635;28;20039;-87
2023/06/28 20:55:20;;;;;;;7.70;3.75;;;;;;;20.73;51.36;100267.22;10459408;28;20475;-86
2023/06/28 21:00:23;;;;;;;5.63;3.95;;;;;;;20.69;51.23;100269.13;10484685;28;20163;-84
2023/06/28 21:05:27;;;;;;;8.70;5.38;;;;;;;20.77;52.11;100264.53;10479638;28;20051;-86
2023/06/28 21:10:29;;;;;;;7.30;4.60;;;;;;;20.83;51.86;100262.28;10487858;28;20041;-85
2023/06/28 21:15:31;;;;;;;6.47;3.97;;;;;;;20.74;51.89;100254.91;10457757;28;20035;-85
2023/06/28 21:20:34;;;;;;;8.20;5.07;;;;;;;20.68;52.46;100255.53;10471561;28;20045;-85
2023/06/28 21:25:40;;;;;;;5.50;4.20;;;;;;;20.60;51.77;100242.56;10467676;28;20047;-85
2023/06/28 21:30:42;;;;;;;5.30;3.63;;;;;;;20.50;51.76;100238.34;10477042;28;20526;-84
2023/06/28 21:35:44;;;;;;;8.77;4.78;;;;;;;20.53;52.23;100232.03;10463120;28;20037;-84
2023/06/28 21:40:46;;;;;;;6.82;3.72;;;;;;;20.51;52.43;100239.97;10453668;28;20056;-85
2023/06/28 21:45:48;;;;;;;7.07;4.03;;;;;;;20.44;52.78;100236.97;10467160;28;20419;-84
2023/06/28 21:50:51;;;;;;;6.38;4.03;;;;;;;20.36;52.46;100230.38;10469303;28;20036;-85
2023/06/28 21:55:53;;;;;;;5.50;3.75;;;;;;;20.25;52.04;100214.53;10452299;28;20048;-85
2023/06/28 22:00:56;;;;;;;9.02;4.28;;;;;;;20.23;52.11;100209.31;10485421;28;20488;-84
2023/06/28 22:05:59;;;;;;;6.65;4.35;;;;;;;20.25;51.78;100209.75;10469909;28;20044;-85
2023/06/28 22:11:02;;;;;;;8.90;4.57;;;;;;;20.22;52.49;100218.03;10487340;28;20043;-84
2023/06/28 22:16:05;;;;;;;7.20;4.40;;;;;;;20.21;53.43;100213.63;10486111;28;20048;-85
2023/06/28 22:21:07;;;;;;;7.05;4.57;;;;;;;20.17;53.93;100205.16;10457904;28;20083;-85
2023/06/28 22:26:09;;;;;;;6.93;4.82;;;;;;;20.18;54.24;100195.66;10473657;28;20039;-86
2023/06/28 22:31:11;;;;;;;10.68;4.97;;;;;;;20.14;55.63;100189.19;10466657;28;20041;-85
2023/06/28 22:36:13;;;;;;;7.88;4.80;;;;;;;20.07;56.29;100183.38;10502388;28;20041;-85
2023/06/28 22:41:16;;;;;;;8.70;4.78;;;;;;;19.98;56.44;100186.34;10484930;28;20500;-85
2023/06/28 22:46:18;;;;;;;5.93;4.35;;;;;;;19.82;57.76;100185.50;10455292;28;20052;-85
2023/06/28 22:51:20;;;;;;;11.93;5.03;;;;;;;19.75;57.96;100176.91;10439099;28;20037;-85
2023/06/28 22:56:24;;;;;;;9.50;4.90;;;;;;;19.68;57.97;100180.31;10485063;28;20131;-85
2023/06/28 23:01:26;;;;;;;10.45;4.95;;;;;;;19.65;58.04;100174.66;10493701;28;20051;-84
2023/06/28 23:06:28;;;;;;;8.02;4.85;;;;;;;19.71;57.25;100179.59;10477320;28;20482;-85
2023/06/28 23:11:31;;;;;;;8.07;5.00;;;;;;;19.73;56.39;100174.50;10441072;28;20067;-85